Time;durP1;ratioP1;P1;durP2;ratioP2;P2;SDS_P1;SDS_P2;PMS_P1;PMS_P2;Temp;Humidity;BMP_temperature;BMP_pressure;BME280_temperature;BME280_humidity;BME280_pressure;Samples;Min_cycle;Max_cycle;Signal;HPM_P1;HPM_P2
2022/10/02 00:00:06;;;;;;;3.92;1.10;;;12.80;96.50;;;;;;4966234;28;20054;-77
2022/10/02 00:02:46;;;;;;;2.25;1.13;;;12.80;96.60;;;;;;4974492;28;20040;-77
2022/10/02 00:05:39;;;;;;;4.47;1.35;;;12.80;96.60;;;;;;4970318;28;20042;-77
2022/10/02 00:08:12;;;;;;;8.35;1.65;;;12.80;96.30;;;;;;4965460;28;20060;-77
2022/10/02 00:10:40;;;;;;;4.97;1.33;;;12.80;96.20;;;;;;4968654;28;20031;-77
2022/10/02 00:13:11;;;;;;;4.90;1.38;;;12.70;96.10;;;;;;4976074;28;20088;-77
2022/10/02 00:15:40;;;;;;;2.80;1.00;;;12.70;96.20;;;;;;4971098;28;20031;-77
2022/10/02 00:18:22;;;;;;;5.60;1.63;;;12.60;96.20;;;;;;4974660;28;20030;-77
2022/10/02 00:20:55;;;;;;;3.40;1.40;;;12.60;96.30;;;;;;4971490;28;20073;-77
2022/10/02 00:23:34;;;;;;;5.97;1.35;;;12.60;96.30;;;;;;4965935;28;20073;-77
2022/10/02 00:26:24;;;;;;;5.65;1.15;;;12.50;96.50;;;;;;4973298;28;20395;-77
2022/10/02 00:29:17;;;;;;;4.70;1.00;;;12.40;96.50;;;;;;4964538;28;20584;-77
2022/10/02 00:31:51;;;;;;;8.93;1.50;;;12.50;96.50;;;;;;4952582;28;20501;-77
2022/10/02 00:34:47;;;;;;;6.60;2.13;;;12.50;96.60;;;;;;4973628;28;20820;-77
2022/10/02 00:37:31;;;;;;;9.32;2.13;;;12.40;96.60;;;;;;4983954;28;20504;-76
2022/10/02 00:40:24;;;;;;;2.15;1.05;;;12.40;96.60;;;;;;4967027;28;20031;-77
2022/10/02 00:43:13;;;;;;;4.05;1.40;;;12.40;96.60;;;;;;4970902;28;20053;-77
2022/10/02 00:46:02;;;;;;;4.60;1.67;;;12.40;96.60;;;;;;4967546;28;20038;-77
2022/10/02 00:48:58;;;;;;;9.25;1.58;;;12.40;96.50;;;;;;4974529;28;20125;-76
2022/10/02 00:51:29;;;;;;;6.70;0.90;;;12.40;96.50;;;;;;4969344;28;20054;-77
2022/10/02 00:54:48;;;;;;;4.53;1.17;;;12.30;96.60;;;;;;4973378;28;20042;-76
2022/10/02 00:57:34;;;;;;;5.20;1.40;;;12.30;96.70;;;;;;4951688;28;20517;-77
2022/10/02 01:00:13;;;;;;;5.07;1.35;;;12.30;96.70;;;;;;4962358;28;20047;-77
2022/10/02 01:03:07;;;;;;;5.78;1.35;;;12.30;96.60;;;;;;4971398;28;20018;-77
2022/10/02 01:05:33;;;;;;;5.68;1.38;;;12.30;96.60;;;;;;4985881;28;20771;-77
2022/10/02 01:08:00;;;;;;;8.02;1.95;;;12.30;96.60;;;;;;4971150;28;20040;-77
2022/10/02 01:10:27;;;;;;;6.30;1.98;;;12.20;96.40;;;;;;4974191;28;20475;-77
2022/10/02 01:12:55;;;;;;;4.82;1.40;;;12.20;96.70;;;;;;4967669;28;20043;-77
2022/10/02 01:15:26;;;;;;;5.65;1.27;;;12.20;96.70;;;;;;4968716;28;20085;-77
2022/10/02 01:17:52;;;;;;;8.10;2.45;;;12.20;96.70;;;;;;4971432;28;20030;-77
2022/10/02 01:20:23;;;;;;;3.72;1.55;;;12.20;96.40;;;;;;4965258;28;20041;-77
2022/10/02 01:23:05;;;;;;;5.80;1.30;;;12.20;96.50;;;;;;4967919;28;20039;-77
2022/10/02 01:25:31;;;;;;;6.43;1.55;;;12.20;96.50;;;;;;4971112;28;20022;-77
2022/10/02 01:27:56;;;;;;;7.88;1.30;;;12.10;96.30;;;;;;4970738;28;20514;-76
2022/10/02 01:30:22;;;;;;;5.45;1.30;;;12.20;96.50;;;;;;4966987;28;20042;-76
2022/10/02 01:32:52;;;;;;;4.07;1.40;;;12.10;96.40;;;;;;4969616;28;20042;-77
2022/10/02 01:35:21;;;;;;;6.93;1.50;;;12.10;96.40;;;;;;4967930;28;20680;-77
2022/10/02 01:37:48;;;;;;;2.67;1.35;;;12.10;96.80;;;;;;4974607;28;20037;-77
2022/10/02 01:40:35;;;;;;;10.68;1.63;;;12.10;96.50;;;;;;4972271;28;20050;-77
2022/10/02 01:43:13;;;;;;;10.88;1.83;;;12.00;96.40;;;;;;4964932;28;20126;-77
2022/10/02 01:46:19;;;;;;;4.68;1.17;;;12.00;96.40;;;;;;4969709;28;20038;-77
2022/10/02 01:48:54;;;;;;;4.18;1.13;;;12.00;96.50;;;;;;4969998;28;20073;-77
2022/10/02 01:51:48;;;;;;;7.55;1.63;;;12.00;96.60;;;;;;4975969;28;20820;-77
2022/10/02 01:54:21;;;;;;;8.50;1.52;;;11.90;96.60;;;;;;4978362;28;20042;-77
2022/10/02 01:57:13;;;;;;;7.90;1.40;;;11.90;96.70;;;;;;4970926;28;20116;-77
2022/10/02 02:00:14;;;;;;;7.05;1.35;;;11.90;97.00;;;;;;4970342;28;20065;-77
2022/10/02 02:02:46;;;;;;;7.30;1.63;;;11.90;97.10;;;;;;4968296;28;20035;-77
2022/10/02 02:05:31;;;;;;;4.95;1.45;;;11.90;97.20;;;;;;4971417;28;20461;-77
2022/10/02 02:08:02;;;;;;;6.10;1.52;;;11.90;97.10;;;;;;4973990;28;20102;-77
2022/10/02 02:10:44;;;;;;;6.97;2.20;;;12.00;97.20;;;;;;4966742;28;20037;-77
2022/10/02 02:13:15;;;;;;;4.68;1.63;;;11.90;97.30;;;;;;4967706;28;20038;-77
2022/10/02 02:15:52;;;;;;;9.50;1.55;;;12.00;97.40;;;;;;4969696;28;20030;-76
2022/10/02 02:18:28;;;;;;;8.10;1.52;;;12.00;97.30;;;;;;4971794;28;20038;-77
2022/10/02 02:21:07;;;;;;;;;;;12.00;97.20;;;;;;4978875;28;20046;-77
2022/10/02 02:23:36;;;;;;;4.22;1.20;;;12.00;97.20;;;;;;4973727;28;19921;-77
2022/10/02 02:26:10;;;;;;;7.28;1.25;;;12.00;97.20;;;;;;4955873;28;20047;-76
2022/10/02 02:28:39;;;;;;;7.00;1.23;;;12.10;97.20;;;;;;4965153;28;20578;-75
2022/10/02 02:31:10;;;;;;;9.60;2.95;;;12.20;97.30;;;;;;4970385;28;20455;-76
2022/10/02 02:33:41;;;;;;;5.57;1.50;;;12.20;97.30;;;;;;4964720;28;20035;-77
2022/10/02 02:36:14;;;;;;;7.47;1.23;;;12.20;97.20;;;;;;4969255;28;20076;-77
2022/10/02 02:38:46;;;;;;;5.50;1.25;;;12.20;97.10;;;;;;4968692;28;21026;-76
2022/10/02 02:41:18;;;;;;;9.45;1.80;;;12.30;97.00;;;;;;4967202;28;20042;-77
2022/10/02 02:43:49;;;;;;;7.90;1.48;;;12.30;96.90;;;;;;4969046;28;20062;-76
2022/10/02 02:47:02;;;;;;;7.47;1.42;;;12.30;96.80;;;;;;4972930;28;20049;-77
2022/10/02 02:49:21;;;;;;;4.95;1.33;;;12.30;96.70;;;;;;4965735;28;20495;-77
2022/10/02 02:51:48;;;;;;;9.80;1.70;;;12.30;96.70;;;;;;4968283;28;20052;-76
2022/10/02 02:54:22;;;;;;;6.35;1.67;;;12.30;96.70;;;;;;4970662;28;20046;-77
2022/10/02 02:56:50;;;;;;;5.50;1.20;;;12.40;96.70;;;;;;4969277;28;20031;-76
2022/10/02 02:59:17;;;;;;;6.05;1.70;;;12.30;96.70;;;;;;4972574;28;20038;-76
2022/10/02 03:01:43;;;;;;;6.13;1.65;;;12.30;96.80;;;;;;4972528;28;20510;-77
2022/10/02 03:04:13;;;;;;;4.00;1.20;;;12.30;96.70;;;;;;4970997;28;20043;-77
2022/10/02 03:06:45;;;;;;;5.65;1.67;;;12.30;96.70;;;;;;4971596;28;20046;-77
2022/10/02 03:09:18;;;;;;;10.20;1.50;;;12.30;96.80;;;;;;4970686;28;20073;-77
2022/10/02 03:12:11;;;;;;;4.82;1.10;;;12.40;97.00;;;;;;4964711;28;20466;-78
2022/10/02 03:15:07;;;;;;;4.40;1.10;;;12.40;96.80;;;;;;4969554;28;20035;-77
2022/10/02 03:17:45;;;;;;;9.57;1.67;;;12.40;96.80;;;;;;4966218;28;20031;-77
2022/10/02 03:20:33;;;;;;;8.32;1.58;;;12.40;96.80;;;;;;4964440;28;20031;-77
2022/10/02 03:23:18;;;;;;;6.95;1.70;;;12.40;96.80;;;;;;4979675;28;20034;-77
2022/10/02 03:25:58;;;;;;;5.60;1.30;;;12.40;96.60;;;;;;4978675;28;20034;-77
2022/10/02 03:28:28;;;;;;;7.53;1.65;;;12.40;96.40;;;;;;4974949;28;20034;-77
2022/10/02 03:30:55;;;;;;;7.05;1.40;;;12.40;96.50;;;;;;4971898;28;20066;-77
2022/10/02 03:33:22;;;;;;;6.32;1.40;;;12.50;96.50;;;;;;4974702;28;20046;-77
2022/10/02 03:35:49;;;;;;;5.15;1.13;;;12.50;96.50;;;;;;4977292;28;20050;-77
2022/10/02 03:38:16;;;;;;;4.90;1.67;;;12.50;96.50;;;;;;4973879;28;20530;-77
2022/10/02 03:40:42;;;;;;;9.77;1.52;;;12.50;96.50;;;;;;4967857;28;20031;-77
2022/10/02 03:43:20;;;;;;;9.05;1.45;;;12.60;96.40;;;;;;4973619;28;20030;-77
2022/10/02 03:45:46;;;;;;;8.75;1.30;;;12.60;96.30;;;;;;4971096;28;20034;-77
2022/10/02 03:48:12;;;;;;;7.40;1.50;;;12.60;96.30;;;;;;4967457;28;20042;-76
2022/10/02 03:50:38;;;;;;;4.57;1.42;;;12.60;96.20;;;;;;4973437;28;20038;-77
2022/10/02 03:53:20;;;;;;;6.78;1.50;;;12.60;96.10;;;;;;4978046;28;20065;-77
2022/10/02 03:55:59;;;;;;;5.93;1.05;;;12.60;96.30;;;;;;4973391;28;20036;-77
2022/10/02 03:58:25;;;;;;;3.20;0.95;;;12.60;96.20;;;;;;4971630;28;20823;-76
2022/10/02 04:00:57;;;;;;;6.43;1.52;;;12.60;96.10;;;;;;4968353;28;20081;-77
2022/10/02 04:03:34;;;;;;;4.13;1.25;;;12.60;96.00;;;;;;4971395;28;20046;-77
2022/10/02 04:06:04;;;;;;;5.65;1.17;;;12.60;96.00;;;;;;4972274;28;20150;-76
2022/10/02 04:08:40;;;;;;;4.57;1.35;;;12.70;96.10;;;;;;4967474;28;20098;-77
2022/10/02 04:11:22;;;;;;;;;;;12.70;95.90;;;;;;4975042;28;20552;-76
2022/10/02 04:14:08;;;;;;;5.82;2.15;;;12.80;95.80;;;;;;4973715;28;19922;-77
2022/10/02 04:16:45;;;;;;;7.85;1.15;;;12.80;95.80;;;;;;4968066;28;20039;-77
2022/10/02 04:19:16;;;;;;;10.20;1.50;;;12.80;95.80;;;;;;4966021;28;20058;-77
2022/10/02 04:21:58;;;;;;;4.32;1.40;;;12.90;95.90;;;;;;4973436;28;20557;-77
2022/10/02 04:24:44;;;;;;;10.63;1.77;;;12.90;95.40;;;;;;4970776;28;20663;-77
2022/10/02 04:27:22;;;;;;;5.53;1.48;;;12.90;95.40;;;;;;4967813;28;20030;-77
2022/10/02 04:29:58;;;;;;;7.50;1.50;;;13.00;95.20;;;;;;4969588;28;20070;-77
2022/10/02 04:32:25;;;;;;;5.47;1.30;;;13.00;95.20;;;;;;4969416;28;20041;-77
2022/10/02 04:34:51;;;;;;;5.75;1.10;;;13.00;94.90;;;;;;4972051;28;20045;-77
2022/10/02 04:37:45;;;;;;;5.47;1.25;;;13.00;95.00;;;;;;4974505;28;20612;-77
2022/10/02 04:40:42;;;;;;;5.05;1.10;;;13.00;94.90;;;;;;4971095;28;20053;-77
2022/10/02 04:43:26;;;;;;;7.50;1.40;;;13.00;94.80;;;;;;4971774;28;20038;-77
2022/10/02 04:46:29;;;;;;;7.57;1.30;;;13.10;94.80;;;;;;4970713;28;20144;-77
2022/10/02 04:48:55;;;;;;;5.22;1.25;;;13.10;94.80;;;;;;4969745;28;20034;-77
2022/10/02 04:51:23;;;;;;;3.80;1.00;;;13.10;94.80;;;;;;4968342;28;20039;-77
2022/10/02 04:53:52;;;;;;;6.00;1.40;;;13.10;94.80;;;;;;4974799;28;20502;-77
2022/10/02 04:56:46;;;;;;;6.55;1.05;;;13.10;94.80;;;;;;4974743;28;20577;-77
2022/10/02 04:59:34;;;;;;;4.47;1.33;;;13.10;94.80;;;;;;4966867;28;20503;-77
2022/10/02 05:02:31;;;;;;;6.65;1.30;;;13.10;94.90;;;;;;4965968;28;20030;-77
2022/10/02 05:05:03;;;;;;;7.70;1.60;;;13.20;95.00;;;;;;4968990;28;20049;-78
2022/10/02 05:08:01;;;;;;;3.15;0.90;;;13.10;95.00;;;;;;4974987;28;20043;-77
2022/10/02 05:10:29;;;;;;;8.20;1.20;;;13.10;95.10;;;;;;4971859;28;20066;-76
2022/10/02 05:13:26;;;;;;;8.35;1.23;;;13.10;95.10;;;;;;4969458;28;20050;-77
2022/10/02 05:16:01;;;;;;;3.65;1.30;;;13.20;95.10;;;;;;4970058;28;20030;-76
2022/10/02 05:18:54;;;;;;;8.25;1.17;;;13.20;95.20;;;;;;4969915;28;20030;-76
2022/10/02 05:21:20;;;;;;;4.15;1.25;;;13.20;95.20;;;;;;4963451;28;20081;-77
2022/10/02 05:23:48;;;;;;;6.80;1.55;;;13.20;95.20;;;;;;4967837;28;20835;-76
2022/10/02 05:26:32;;;;;;;4.32;1.30;;;13.20;95.30;;;;;;4967433;28;20038;-77
2022/10/02 05:29:22;;;;;;;6.80;1.30;;;13.20;95.30;;;;;;4969575;28;20035;-77
2022/10/02 05:32:22;;;;;;;5.05;1.45;;;13.30;95.30;;;;;;4969407;28;20681;-76
2022/10/02 05:35:11;;;;;;;9.50;1.33;;;13.30;95.20;;;;;;4969347;28;20042;-76
2022/10/02 05:37:57;;;;;;;7.88;1.60;;;13.30;95.30;;;;;;4948418;28;20043;-77
2022/10/02 05:40:34;;;;;;;9.07;1.55;;;13.30;95.30;;;;;;4965932;28;20035;-76
2022/10/02 05:43:11;;;;;;;5.25;1.20;;;13.30;95.30;;;;;;4960967;28;20547;-76
2022/10/02 05:45:42;;;;;;;5.20;1.65;;;13.40;95.30;;;;;;4968933;28;20113;-76
2022/10/02 05:48:14;;;;;;;3.80;1.40;;;13.40;95.30;;;;;;4967223;28;20812;-73
2022/10/02 05:50:41;;;;;;;4.03;1.25;;;13.30;95.20;;;;;;4966593;28;20090;-78
2022/10/02 05:53:29;;;;;;;1.70;1.13;;;13.30;95.30;;;;;;4965253;28;20027;-76
2022/10/02 05:56:14;;;;;;;5.47;1.50;;;13.40;95.30;;;;;;4969061;28;20027;-75
2022/10/02 05:59:04;;;;;;;7.60;2.58;;;13.40;95.30;;;;;;4968405;28;20038;-75
2022/10/02 06:01:36;;;;;;;9.65;1.95;;;13.40;95.40;;;;;;4968204;28;20039;-76
2022/10/02 06:04:19;;;;;;;6.80;1.92;;;13.40;95.20;;;;;;4967368;28;20039;-80
2022/10/02 06:06:50;;;;;;;7.50;2.00;;;13.40;95.20;;;;;;4968390;28;20053;-80
2022/10/02 06:09:17;;;;;;;9.60;1.85;;;13.50;95.20;;;;;;4973050;28;20044;-79
2022/10/02 06:11:49;;;;;;;6.55;1.77;;;13.50;95.10;;;;;;4967183;28;20051;-74
2022/10/02 06:14:41;;;;;;;7.55;1.40;;;13.50;95.00;;;;;;4973298;28;20048;-77
2022/10/02 06:17:14;;;;;;;7.22;1.98;;;13.40;95.00;;;;;;4951967;28;20124;-78
2022/10/02 06:19:52;;;;;;;5.93;1.50;;;13.40;95.00;;;;;;4970028;28;20121;-76
2022/10/02 06:22:59;;;;;;;8.52;2.42;;;13.40;95.00;;;;;;4971000;28;20030;-75
2022/10/02 06:25:46;;;;;;;8.45;2.00;;;13.40;95.00;;;;;;4899292;29;20040;-76
2022/10/02 06:28:38;;;;;;;8.68;2.03;;;13.50;95.30;;;;;;4904727;29;20543;-77
2022/10/02 06:31:17;;;;;;;11.43;2.30;;;13.50;95.20;;;;;;4954490;28;20057;-73
2022/10/02 06:33:44;;;;;;;9.35;2.05;;;13.60;95.20;;;;;;4969367;28;20073;-68
2022/10/02 06:36:16;;;;;;;7.40;2.28;;;13.70;95.10;;;;;;4965591;28;20091;-75
2022/10/02 06:39:04;;;;;;;8.43;2.25;;;13.70;94.70;;;;;;4972922;28;20092;-75
2022/10/02 06:41:55;;;;;;;10.77;2.58;;;13.80;94.80;;;;;;4964440;28;20130;-75
2022/10/02 06:44:46;;;;;;;6.60;2.08;;;13.80;94.60;;;;;;4968445;28;20026;-75
2022/10/02 06:47:13;;;;;;;8.63;2.70;;;13.90;94.50;;;;;;4968606;28;20613;-76
2022/10/02 06:49:53;;;;;;;8.40;2.67;;;13.90;94.50;;;;;;4971134;28;20038;-71
2022/10/02 06:52:50;;;;;;;8.48;2.08;;;13.90;94.30;;;;;;4966932;28;20167;-73
2022/10/02 06:55:36;;;;;;;8.27;1.92;;;13.90;94.30;;;;;;4972138;28;20073;-77
2022/10/02 06:58:29;;;;;;;9.90;1.83;;;13.90;94.30;;;;;;4957724;28;20046;-74
2022/10/02 07:01:12;;;;;;;13.48;2.55;;;13.90;94.40;;;;;;4970326;28;20038;-72
2022/10/02 07:03:53;;;;;;;8.50;2.75;;;13.90;94.60;;;;;;4963451;28;20031;-71
2022/10/02 07:06:42;;;;;;;13.70;2.40;;;14.00;94.50;;;;;;4963441;28;20038;-75
2022/10/02 07:09:36;;;;;;;7.35;2.17;;;13.90;94.60;;;;;;4970779;28;20137;-72
2022/10/02 07:12:08;;;;;;;8.52;2.40;;;14.00;94.60;;;;;;4961886;28;20030;-73
2022/10/02 07:14:46;;;;;;;5.63;2.35;;;14.10;94.60;;;;;;4971892;28;20035;-73
2022/10/02 07:17:21;;;;;;;6.93;2.75;;;14.30;94.50;;;;;;4974197;28;20042;-73
2022/10/02 07:19:46;;;;;;;11.93;2.72;;;14.50;94.00;;;;;;4973473;28;20058;-71
2022/10/02 07:22:37;;;;;;;9.38;2.42;;;14.80;93.90;;;;;;4967774;28;20120;-74
2022/10/02 07:25:27;;;;;;;6.45;2.50;;;15.00;93.00;;;;;;4969550;28;20052;-75
2022/10/02 07:28:50;;;;;;;10.13;2.92;;;15.10;93.00;;;;;;4979460;28;20096;-75
2022/10/02 07:31:25;;;;;;;5.93;2.15;;;15.30;92.50;;;;;;4920913;29;20095;-75
2022/10/02 07:34:12;;;;;;;8.25;2.80;;;15.30;92.40;;;;;;4919182;29;20044;-75
2022/10/02 07:36:37;;;;;;;12.77;2.58;;;15.30;92.20;;;;;;4945335;28;20049;-74
2022/10/02 07:39:30;;;;;;;10.27;2.65;;;15.30;92.10;;;;;;4964579;28;20026;-75
2022/10/02 07:42:11;;;;;;;9.02;2.95;;;15.30;92.20;;;;;;4963874;28;20043;-75
2022/10/02 07:45:17;;;;;;;11.35;3.50;;;15.30;92.10;;;;;;4962791;28;20046;-75
2022/10/02 07:47:42;;;;;;;10.00;2.90;;;15.30;92.10;;;;;;4965822;28;20491;-74
2022/10/02 07:50:33;;;;;;;6.60;2.67;;;15.30;92.10;;;;;;4977044;28;20070;-75
2022/10/02 07:53:11;;;;;;;7.82;3.03;;;15.30;92.40;;;;;;4967093;28;20046;-75
2022/10/02 07:55:43;;;;;;;12.40;3.60;;;15.40;92.30;;;;;;4974394;28;20033;-75
2022/10/02 07:58:29;;;;;;;8.93;2.67;;;15.50;92.20;;;;;;4969804;28;20154;-75
2022/10/02 08:01:04;;;;;;;10.73;3.30;;;15.60;92.30;;;;;;4964182;28;20038;-75
2022/10/02 08:03:50;;;;;;;8.07;3.25;;;15.70;92.30;;;;;;4973853;28;20035;-74
2022/10/02 08:06:17;;;;;;;9.00;2.90;;;15.70;91.70;;;;;;4968136;28;20039;-74
2022/10/02 08:08:48;;;;;;;10.25;3.33;;;15.90;91.80;;;;;;4973885;28;20545;-76
2022/10/02 08:11:36;;;;;;;10.25;3.00;;;16.00;91.70;;;;;;4976662;28;20037;-75
2022/10/02 08:14:17;;;;;;;9.45;3.05;;;16.10;91.50;;;;;;4970098;28;20093;-74
2022/10/02 08:16:55;;;;;;;9.02;2.88;;;16.20;91.30;;;;;;4965946;28;20084;-76
2022/10/02 08:19:44;;;;;;;8.18;3.35;;;16.10;91.50;;;;;;4969110;28;20046;-73
2022/10/02 08:22:39;;;;;;;14.27;4.10;;;16.30;91.50;;;;;;4969819;28;20035;-73
2022/10/02 08:25:53;;;;;;;9.50;3.28;;;16.40;90.70;;;;;;4967916;28;20065;-73
2022/10/02 08:28:41;;;;;;;11.45;4.07;;;16.50;90.90;;;;;;4921369;29;20043;-71
2022/10/02 08:31:11;;;;;;;10.30;3.72;;;16.60;90.80;;;;;;4920061;29;20063;-74
2022/10/02 08:33:37;;;;;;;14.60;3.50;;;16.80;90.70;;;;;;4955814;28;20053;-74
2022/10/02 08:36:12;;;;;;;12.77;3.10;;;16.80;89.90;;;;;;4970098;28;20038;-76
2022/10/02 08:38:44;;;;;;;15.00;3.17;;;16.80;89.60;;;;;;4964966;28;20348;-75
2022/10/02 08:41:48;;;;;;;13.00;3.28;;;16.80;88.40;;;;;;4967003;28;20041;-75
2022/10/02 08:44:52;;;;;;;9.20;3.38;;;16.80;89.30;;;;;;4937210;28;20940;-75
2022/10/02 08:47:55;;;;;;;12.75;3.05;;;16.90;89.40;;;;;;4931762;28;20051;-76
2022/10/02 08:50:33;;;;;;;13.65;3.17;;;17.00;89.00;;;;;;4930979;28;20050;-71
2022/10/02 08:53:37;;;;;;;13.45;3.45;;;17.00;88.70;;;;;;4969998;28;20085;-76
2022/10/02 08:56:22;;;;;;;10.60;2.88;;;17.00;87.80;;;;;;4970843;28;20038;-76
2022/10/02 08:58:53;;;;;;;13.40;3.10;;;16.90;88.80;;;;;;4965580;28;20027;-72
2022/10/02 09:01:58;;;;;;;7.72;3.25;;;16.90;88.40;;;;;;4970383;28;20062;-73
2022/10/02 09:05:08;;;;;;;7.05;2.28;;;17.00;89.10;;;;;;4971502;28;20030;-72
2022/10/02 09:08:11;;;;;;;13.25;2.88;;;17.10;88.60;;;;;;4968288;28;20062;-72
2022/10/02 09:11:04;;;;;;;7.38;2.60;;;17.20;87.30;;;;;;4967805;28;20037;-72
2022/10/02 09:14:16;;;;;;;8.27;2.08;;;17.10;87.00;;;;;;4970559;28;20454;-72
2022/10/02 09:16:57;;;;;;;10.50;3.17;;;17.20;88.50;;;;;;4966781;28;20031;-73
2022/10/02 09:19:53;;;;;;;10.85;2.53;;;17.40;88.20;;;;;;4971059;28;20100;-72
2022/10/02 09:22:49;;;;;;;5.05;1.88;;;17.60;88.60;;;;;;4962755;28;20042;-73
2022/10/02 09:25:21;;;;;;;5.57;1.90;;;17.80;85.80;;;;;;4969812;28;20053;-73
2022/10/02 09:28:37;;;;;;;4.25;1.77;;;17.90;85.70;;;;;;4967752;28;20142;-73
2022/10/02 09:31:13;;;;;;;8.93;2.53;;;18.10;85.40;;;;;;4954539;28;20055;-73
2022/10/02 09:34:24;;;;;;;5.88;1.77;;;18.20;84.80;;;;;;4967990;28;20101;-72
2022/10/02 09:37:00;;;;;;;8.40;1.90;;;18.20;85.40;;;;;;4966379;28;20035;-73
2022/10/02 09:39:38;;;;;;;5.40;1.80;;;18.30;84.70;;;;;;4969095;28;20813;-73
2022/10/02 09:43:03;;;;;;;8.98;2.15;;;18.30;84.10;;;;;;4966071;28;20042;-73
2022/10/02 09:45:57;;;;;;;6.78;1.98;;;18.60;85.60;;;;;;4965237;28;20117;-71
2022/10/02 09:48:52;;;;;;;7.63;2.08;;;18.70;82.60;;;;;;4965894;28;20582;-72
2022/10/02 09:51:27;;;;;;;5.53;1.85;;;18.90;82.30;;;;;;4960041;28;20035;-73
2022/10/02 09:54:46;;;;;;;5.13;2.13;;;18.90;81.50;;;;;;4971723;28;20027;-74
2022/10/02 09:57:41;;;;;;;8.55;2.60;;;18.80;81.60;;;;;;4906211;29;20044;-75
2022/10/02 10:00:29;;;;;;;8.52;2.60;;;18.60;82.70;;;;;;4955803;28;20049;-70
2022/10/02 10:03:22;;;;;;;7.63;2.50;;;18.50;84.20;;;;;;4966468;28;20034;-73
2022/10/02 10:06:02;;;;;;;7.15;1.92;;;18.20;85.80;;;;;;4971141;28;20103;-73
2022/10/02 10:08:37;;;;;;;8.85;3.05;;;18.00;87.70;;;;;;4967762;28;20110;-72
2022/10/02 10:11:31;;;;;;;12.00;3.22;;;17.80;88.90;;;;;;4969788;28;20043;-72
2022/10/02 10:14:17;;;;;;;9.07;2.85;;;17.50;90.10;;;;;;4971560;28;20137;-70
2022/10/02 10:17:04;;;;;;;7.35;3.08;;;17.30;90.80;;;;;;4954436;28;20042;-73
2022/10/02 10:19:33;;;;;;;9.90;3.78;;;17.00;91.60;;;;;;4968767;28;20035;-78
2022/10/02 10:22:25;;;;;;;10.27;4.35;;;16.80;92.20;;;;;;4965533;28;20026;-74
2022/10/02 10:25:09;;;;;;;10.38;3.90;;;16.70;92.90;;;;;;4964899;28;20041;-74
2022/10/02 10:27:56;;;;;;;9.73;4.50;;;16.70;93.30;;;;;;4953003;28;20085;-74
2022/10/02 10:30:42;;;;;;;10.98;4.28;;;16.80;93.30;;;;;;4969524;28;20042;-74
2022/10/02 10:33:23;;;;;;;13.40;5.00;;;17.00;93.40;;;;;;4963309;28;20038;-74
2022/10/02 10:39:45;;;;;;;9.55;4.28;;;18.40;92.40;;;;;;4970740;28;20096;-75
2022/10/02 10:42:36;;;;;;;9.18;3.83;;;19.10;91.60;;;;;;4963703;28;20030;-74
2022/10/02 10:45:21;;;;;;;11.25;3.45;;;20.10;90.40;;;;;;4965792;28;20046;-74
2022/10/02 10:48:05;;;;;;;8.70;3.17;;;21.00;84.40;;;;;;4970831;28;20688;-75
2022/10/02 10:51:01;;;;;;;6.57;2.40;;;21.60;82.80;;;;;;4970124;28;20050;-73
2022/10/02 10:53:35;;;;;;;6.60;2.88;;;21.80;79.60;;;;;;4968977;28;20121;-73
2022/10/02 10:56:35;;;;;;;7.90;2.70;;;21.40;80.70;;;;;;4968477;28;20058;-74
2022/10/02 10:59:15;;;;;;;7.18;2.40;;;20.70;80.60;;;;;;4966819;28;20117;-74
2022/10/02 11:01:59;;;;;;;8.18;2.90;;;20.00;81.10;;;;;;4968362;28;20768;-74
2022/10/02 11:04:46;;;;;;;8.18;2.63;;;19.40;83.30;;;;;;4964349;28;20038;-74
2022/10/02 11:07:53;;;;;;;4.82;2.80;;;18.90;86.80;;;;;;4967176;28;20047;-70
2022/10/02 11:10:47;;;;;;;9.10;3.03;;;18.60;87.60;;;;;;4965794;28;20070;-74
2022/10/02 11:13:34;;;;;;;4.25;2.55;;;18.30;88.70;;;;;;4965989;28;20070;-73
2022/10/02 11:16:16;;;;;;;9.27;3.03;;;18.00;90.00;;;;;;4970097;28;20029;-74
2022/10/02 11:19:03;;;;;;;7.10;3.33;;;17.80;90.50;;;;;;4965796;28;20113;-72
2022/10/02 11:21:29;;;;;;;8.15;3.10;;;17.70;91.00;;;;;;4968916;28;20058;-75
2022/10/02 11:24:13;;;;;;;6.60;3.10;;;17.60;90.80;;;;;;4966394;28;20030;-74
2022/10/02 11:27:08;;;;;;;11.07;3.60;;;17.60;91.60;;;;;;4969017;28;20759;-74
2022/10/02 11:30:07;;;;;;;11.50;3.13;;;17.60;92.30;;;;;;4970618;28;20030;-69
2022/10/02 11:32:33;;;;;;;10.80;3.10;;;17.70;92.50;;;;;;4956454;28;20037;-76
2022/10/02 11:35:20;;;;;;;8.18;2.83;;;17.80;92.20;;;;;;4966386;28;20042;-74
2022/10/02 11:38:24;;;;;;;6.82;3.20;;;17.80;90.70;;;;;;4966326;28;20027;-75
2022/10/02 11:41:34;;;;;;;9.18;2.60;;;17.80;91.20;;;;;;4965426;28;20120;-74
2022/10/02 11:44:12;;;;;;;5.72;2.58;;;17.70;91.10;;;;;;4971155;28;20050;-74
2022/10/02 11:46:57;;;;;;;5.20;2.55;;;17.70;91.20;;;;;;4966611;28;20034;-74
2022/10/02 11:49:40;;;;;;;9.23;2.92;;;17.70;91.10;;;;;;4970481;28;20041;-75
2022/10/02 11:52:28;;;;;;;6.13;2.30;;;17.70;91.30;;;;;;4968780;28;20762;-74
2022/10/02 11:55:21;;;;;;;8.13;3.13;;;17.80;91.10;;;;;;4968029;28;20147;-74
2022/10/02 11:58:47;;;;;;;5.90;2.42;;;17.80;91.80;;;;;;4970147;28;20031;-74
2022/10/02 12:01:21;;;;;;;5.60;2.40;;;17.90;91.90;;;;;;4941381;28;20035;-74
2022/10/02 12:04:21;;;;;;;8.05;3.00;;;18.00;91.30;;;;;;4941169;28;20043;-74
2022/10/02 12:07:14;;;;;;;4.93;1.90;;;18.10;91.10;;;;;;4940993;28;20889;-74
2022/10/02 12:10:09;;;;;;;7.60;2.58;;;18.10;90.90;;;;;;4941325;29;20055;-74
2022/10/02 12:12:39;;;;;;;7.53;2.70;;;18.10;90.70;;;;;;4955470;28;20042;-70
2022/10/02 12:15:23;;;;;;;8.85;2.30;;;18.20;90.70;;;;;;4971715;28;20096;-75
2022/10/02 12:18:50;;;;;;;6.30;1.90;;;18.30;90.70;;;;;;4969412;28;20042;-75
2022/10/02 12:27:43;;;;;;;4.80;1.98;;;18.50;87.70;;;;;;4970600;28;20042;-75
2022/10/02 12:30:21;;;;;;;13.05;2.08;;;18.60;86.60;;;;;;4963404;28;20049;-75
2022/10/02 12:33:06;;;;;;;6.20;1.85;;;18.60;87.50;;;;;;4979278;28;20948;-79
2022/10/02 12:36:04;;;;;;;10.57;2.40;;;18.70;84.60;;;;;;4972184;28;20098;-79
2022/10/02 12:38:43;;;;;;;7.32;2.10;;;18.70;86.00;;;;;;4972036;28;20890;-79
2022/10/02 12:41:36;;;;;;;5.30;1.92;;;18.70;86.10;;;;;;4973923;28;20047;-75
2022/10/02 12:44:46;;;;;;;7.97;2.10;;;18.80;85.90;;;;;;4969180;28;20046;-75
2022/10/02 12:47:39;;;;;;;6.75;2.53;;;18.80;84.00;;;;;;4966808;28;20043;-75
2022/10/02 12:50:15;;;;;;;9.20;1.95;;;18.80;82.30;;;;;;4972661;28;20042;-75
2022/10/02 12:52:52;;;;;;;5.97;1.73;;;18.80;83.30;;;;;;4966184;28;20031;-75
2022/10/02 12:55:48;;;;;;;5.18;1.30;;;18.80;83.10;;;;;;4969530;28;20043;-75
2022/10/02 12:59:05;;;;;;;5.10;1.67;;;18.90;83.30;;;;;;4972804;28;20569;-75
2022/10/02 13:01:55;;;;;;;6.15;1.45;;;18.90;82.00;;;;;;4936558;28;20145;-75
2022/10/02 13:04:56;;;;;;;5.63;1.58;;;18.90;81.90;;;;;;4975869;28;20145;-75
2022/10/02 13:07:25;;;;;;;9.75;1.88;;;18.80;82.70;;;;;;4969203;28;20125;-74
2022/10/02 13:10:21;;;;;;;6.95;1.50;;;18.70;83.20;;;;;;4969607;28;20035;-74
2022/10/02 13:13:15;;;;;;;8.10;1.90;;;18.70;82.80;;;;;;4968847;28;20037;-74
2022/10/02 13:16:06;;;;;;;8.07;1.50;;;18.60;82.10;;;;;;4964684;28;20041;-74
2022/10/02 13:18:57;;;;;;;8.75;2.00;;;18.40;82.20;;;;;;4972295;28;20058;-77
2022/10/02 13:21:50;;;;;;;6.68;1.50;;;18.30;84.80;;;;;;4970754;28;20026;-74
2022/10/02 13:24:46;;;;;;;4.72;1.60;;;18.10;87.60;;;;;;4966751;28;20576;-73
2022/10/02 13:27:17;;;;;;;8.45;1.73;;;17.90;89.80;;;;;;4966057;28;20423;-73
2022/10/02 13:29:46;;;;;;;7.10;1.27;;;17.70;90.40;;;;;;4971924;28;20038;-72
2022/10/02 13:32:55;;;;;;;7.22;1.30;;;17.50;90.60;;;;;;4976979;28;20213;-73
2022/10/02 13:35:36;;;;;;;8.40;2.20;;;17.30;90.70;;;;;;4972050;28;20120;-75
2022/10/02 13:38:42;;;;;;;6.15;1.70;;;17.20;91.00;;;;;;4972729;28;20047;-73
2022/10/02 13:41:44;;;;;;;2.42;1.23;;;17.00;90.80;;;;;;4964437;28;20138;-76
2022/10/02 13:44:21;;;;;;;3.40;1.05;;;16.80;90.40;;;;;;4963387;28;20034;-74
2022/10/02 13:47:42;;;;;;;3.88;1.00;;;16.70;90.00;;;;;;4970514;28;20325;-73
2022/10/02 13:50:14;;;;;;;3.63;1.10;;;16.50;90.40;;;;;;4921098;29;20131;-72
2022/10/02 13:53:00;;;;;;;2.85;0.73;;;16.40;90.50;;;;;;4956502;28;20162;-73
2022/10/02 13:55:28;;;;;;;;;;;16.20;90.40;;;;;;4969439;28;20057;-73
2022/10/02 13:58:16;;;;;;;4.72;1.00;;;16.10;90.50;;;;;;4963341;28;19957;-73
2022/10/02 14:01:08;;;;;;;2.92;0.63;;;16.00;90.80;;;;;;4966273;28;20043;-73
2022/10/02 14:04:00;;;;;;;1.33;0.68;;;15.90;91.00;;;;;;4952393;28;20034;-77
2022/10/02 14:06:52;;;;;;;1.05;0.75;;;15.80;91.10;;;;;;4965240;28;20070;-77
2022/10/02 14:09:42;;;;;;;1.27;0.40;;;15.70;91.30;;;;;;4969926;28;20141;-77
2022/10/02 14:12:20;;;;;;;3.03;0.75;;;15.70;91.50;;;;;;4965868;28;20120;-78
2022/10/02 14:14:55;;;;;;;4.88;0.98;;;15.70;91.40;;;;;;4971624;28;20034;-77
2022/10/02 14:17:26;;;;;;;2.63;0.50;;;15.70;91.40;;;;;;4974359;28;20112;-78